Time;durP1;ratioP1;P1;durP2;ratioP2;P2;SDS_P1;SDS_P2;PMS_P1;PMS_P2;Temp;Humidity;BMP_temperature;BMP_pressure;BME280_temperature;BME280_humidity;BME280_pressure;Samples;Min_cycle;Max_cycle;Signal;HPM_P1;HPM_P2
2022/11/07 00:00:56;;;;;;;5.67;2.20;;;;;;;10.02;100.00;100740.81;5073230;28;20442;-34
2022/11/07 00:03:22;;;;;;;6.67;2.40;;;;;;;10.03;100.00;100748.69;5072930;28;20037;-34
2022/11/07 00:05:47;;;;;;;7.63;2.27;;;;;;;9.95;100.00;100729.28;5072696;28;20094;-34
2022/11/07 00:08:12;;;;;;;5.53;2.17;;;;;;;10.07;100.00;100746.38;5073173;28;20028;-34
2022/11/07 00:10:37;;;;;;;9.13;2.33;;;;;;;10.07;100.00;100741.78;5072655;28;20472;-34
2022/11/07 00:13:03;;;;;;;11.83;2.70;;;;;;;10.01;100.00;100729.19;5072519;28;20062;-34
2022/11/07 00:15:28;;;;;;;5.27;2.27;;;;;;;10.07;100.00;100741.78;5072476;28;20069;-34
2022/11/07 00:17:53;;;;;;;4.73;2.00;;;;;;;10.14;100.00;100744.38;5072575;28;20029;-34
2022/11/07 00:20:19;;;;;;;6.23;2.30;;;;;;;10.16;100.00;100747.69;5071372;28;20032;-34
2022/11/07 00:22:44;;;;;;;8.35;3.05;;;;;;;10.16;100.00;100747.69;5072748;28;20047;-34
2022/11/07 00:25:10;;;;;;;8.27;2.37;;;;;;;10.17;100.00;100749.31;5072855;28;20059;-34
2022/11/07 00:27:35;;;;;;;6.50;2.53;;;;;;;10.16;100.00;100760.38;5073016;28;20035;-34
2022/11/07 00:30:00;;;;;;;5.30;2.30;;;;;;;9.98;100.00;100716.13;5072079;28;20484;-34
2022/11/07 00:32:26;;;;;;;9.50;3.22;;;;;;;10.12;100.00;100762.72;5072724;28;20029;-34
2022/11/07 00:34:51;;;;;;;7.30;2.23;;;;;;;10.05;100.00;100751.16;5072353;28;20388;-34
2022/11/07 00:37:16;;;;;;;5.77;2.13;;;;;;;10.11;100.00;100760.25;5072102;28;20025;-34
2022/11/07 00:39:42;;;;;;;7.43;2.77;;;;;;;10.08;100.00;100758.81;5072608;28;20393;-34
2022/11/07 00:42:07;;;;;;;4.83;1.97;;;;;;;10.04;100.00;100753.03;5072508;28;20142;-34
2022/11/07 00:44:32;;;;;;;6.30;2.63;;;;;;;10.01;100.00;100760.78;5072772;28;20034;-34
2022/11/07 00:46:57;;;;;;;5.10;2.17;;;;;;;9.99;100.00;100760.19;5076051;28;20334;-34
2022/11/07 00:49:23;;;;;;;7.57;2.20;;;;;;;9.95;100.00;100762.50;5075845;28;20089;-34
2022/11/07 00:51:48;;;;;;;9.67;2.33;;;;;;;9.87;100.00;100756.63;5075879;28;20089;-34
2022/11/07 00:54:13;;;;;;;5.57;2.10;;;;;;;9.93;100.00;100771.91;5076241;28;20028;-34
2022/11/07 00:56:39;;;;;;;12.20;3.17;;;;;;;9.91;100.00;100763.22;5076076;28;20035;-34
2022/11/07 00:59:04;;;;;;;9.93;2.20;;;;;;;9.88;100.00;100764.50;5075530;28;20387;-34
2022/11/07 01:01:31;;;;;;;5.83;2.30;;;;;;;9.87;100.00;100768.25;5075337;28;20031;-34
2022/11/07 01:06:42;;;;;;;7.55;2.63;;;;;;;9.85;100.00;100762.22;5076242;28;20036;-34
2022/11/07 01:09:11;;;;;;;13.18;2.85;;;;;;;9.85;100.00;100764.94;5076234;28;20098;-34
2022/11/07 01:11:38;;;;;;;6.65;2.00;;;;;;;9.80;100.00;100765.63;5076109;28;20039;-34
2022/11/07 01:14:05;;;;;;;8.65;2.35;;;;;;;9.82;100.00;100780.78;5076030;28;20035;-34
2022/11/07 01:16:34;;;;;;;4.95;1.75;;;;;;;9.80;100.00;100773.72;5075270;28;20489;-34
2022/11/07 01:19:00;;;;;;;7.07;2.13;;;;;;;9.79;100.00;100782.88;5075674;28;20032;-34
2022/11/07 01:21:25;;;;;;;6.97;2.42;;;;;;;9.79;100.00;100782.06;5073564;28;20489;-34
2022/11/07 01:23:50;;;;;;;6.00;2.23;;;;;;;9.80;100.00;100792.63;5075741;28;20137;-34
2022/11/07 01:26:16;;;;;;;8.63;2.43;;;;;;;9.80;100.00;100797.19;5075184;28;20078;-34
2022/11/07 01:28:42;;;;;;;4.17;1.73;;;;;;;9.81;100.00;100801.56;5075335;28;20033;-34
2022/11/07 01:31:10;;;;;;;7.57;2.22;;;;;;;9.79;100.00;100799.09;5075181;28;20035;-35
2022/11/07 01:33:37;;;;;;;6.30;2.00;;;;;;;9.78;100.00;100807.41;5075312;28;20029;-35
2022/11/07 01:36:07;;;;;;;6.47;2.00;;;;;;;9.76;100.00;100802.25;5075318;28;20040;-35
2022/11/07 01:38:34;;;;;;;7.68;1.98;;;;;;;9.73;100.00;100801.88;5075855;28;20028;-34
2022/11/07 01:43:55;;;;;;;6.40;2.08;;;;;;;9.79;100.00;100809.06;5075291;28;20483;-34
2022/11/07 01:46:25;;;;;;;5.30;2.10;;;;;;;9.79;100.00;100803.66;5075638;28;20060;-33
2022/11/07 01:49:02;;;;;;;5.20;1.70;;;;;;;9.80;100.00;100802.59;5075066;28;20452;-34
2022/11/07 01:51:32;;;;;;;6.85;2.40;;;;;;;9.80;100.00;100806.13;5075392;28;20029;-34
2022/11/07 01:53:57;;;;;;;5.80;2.10;;;;;;;9.81;100.00;100804.28;5073752;28;20483;-35
2022/11/07 01:56:27;;;;;;;5.85;2.17;;;;;;;9.81;100.00;100801.56;5074811;28;20025;-34
2022/11/07 01:58:55;;;;;;;10.57;2.15;;;;;;;9.80;100.00;100803.44;5075213;28;20418;-34
2022/11/07 02:01:20;;;;;;;6.65;2.08;;;;;;;9.84;100.00;100803.81;5074387;28;20029;-34
2022/11/07 02:03:46;;;;;;;6.90;2.30;;;;;;;9.85;100.00;100813.56;5074726;28;20028;-34
2022/11/07 02:06:23;;;;;;;5.22;2.35;;;;;;;9.86;100.00;100799.03;5074796;28;20075;-34
2022/11/07 02:08:50;;;;;;;6.07;2.10;;;;;;;9.91;100.00;100814.53;5075254;28;20037;-33
2022/11/07 02:11:17;;;;;;;7.57;2.20;;;;;;;9.95;100.00;100800.31;5074576;28;20345;-34
2022/11/07 02:13:42;;;;;;;9.48;2.30;;;;;;;9.98;100.00;100808.00;5074105;28;20039;-34
2022/11/07 02:16:07;;;;;;;8.20;2.20;;;;;;;10.03;100.00;100808.13;5074708;28;20024;-34
2022/11/07 02:18:35;;;;;;;8.47;2.43;;;;;;;10.02;100.00;100792.16;5074602;28;20254;-34
2022/11/07 02:21:11;;;;;;;9.68;2.33;;;;;;;10.12;100.00;100807.81;5072930;28;20021;-34
2022/11/07 02:23:49;;;;;;;6.93;2.20;;;;;;;10.12;100.00;100807.81;5074451;28;20044;-34
2022/11/07 02:26:14;;;;;;;7.35;2.35;;;;;;;10.07;100.00;100798.53;5074444;28;20068;-34
2022/11/07 02:28:42;;;;;;;7.67;2.50;;;;;;;10.11;100.00;100807.00;5074164;28;20492;-34
2022/11/07 02:31:07;;;;;;;7.20;2.25;;;;;;;10.10;100.00;100805.31;5072908;28;20110;-34
2022/11/07 02:33:32;;;;;;;6.77;2.73;;;;;;;10.11;100.00;100811.59;5074178;28;20432;-34
2022/11/07 02:35:59;;;;;;;12.07;2.70;;;;;;;10.11;100.00;100808.88;5074145;28;20031;-34
2022/11/07 02:38:28;;;;;;;8.30;2.38;;;;;;;10.13;100.00;100817.56;5074436;28;20036;-34
2022/11/07 02:41:18;;;;;;;10.00;2.58;;;;;;;10.12;100.00;100807.81;5073806;28;20016;-34
2022/11/07 02:44:06;;;;;;;7.57;2.20;;;;;;;10.13;100.00;100806.75;5073928;28;20512;-34
2022/11/07 02:46:32;;;;;;;6.53;2.03;;;;;;;10.04;100.00;100796.25;5073849;28;20036;-34
2022/11/07 02:48:59;;;;;;;9.35;2.60;;;;;;;10.12;100.00;100802.41;5073479;28;20032;-34
2022/11/07 02:51:25;;;;;;;9.65;2.63;;;;;;;10.09;100.00;100803.69;5073679;28;20042;-34
2022/11/07 02:53:51;;;;;;;8.93;2.65;;;;;;;10.10;100.00;100802.63;5073650;28;20171;-34
2022/11/07 02:56:16;;;;;;;6.07;2.60;;;;;;;10.09;100.00;100797.47;5073819;28;20025;-34
2022/11/07 02:58:42;;;;;;;5.38;2.08;;;;;;;10.10;100.00;100799.09;5073340;28;20090;-34
2022/11/07 03:01:07;;;;;;;11.23;2.77;;;;;;;10.07;100.00;100785.00;5073507;28;20467;-34
2022/11/07 03:03:38;;;;;;;7.90;2.53;;;;;;;10.09;100.00;100797.47;5072062;28;20041;-33
2022/11/07 03:06:10;;;;;;;8.57;3.22;;;;;;;10.04;100.00;100792.75;5073739;28;20580;-34
2022/11/07 03:08:36;;;;;;;10.45;2.53;;;;;;;10.04;100.00;100798.97;5073490;28;20024;-34
2022/11/07 03:11:02;;;;;;;8.00;2.22;;;;;;;10.04;100.00;100798.97;5073434;28;20029;-34
2022/11/07 03:13:27;;;;;;;11.55;3.22;;;;;;;10.02;100.00;100798.38;5073258;28;20526;-34
2022/11/07 03:15:54;;;;;;;9.23;2.40;;;;;;;10.02;100.00;100797.56;5073569;28;20036;-34
2022/11/07 03:18:20;;;;;;;7.85;3.35;;;;;;;9.99;100.00;100793.41;5073189;28;20028;-35
2022/11/07 03:20:45;;;;;;;13.55;2.50;;;;;;;9.98;100.00;100789.06;5073845;28;20040;-35
2022/11/07 03:23:11;;;;;;;9.73;2.47;;;;;;;9.97;100.00;100797.41;5073117;28;20040;-34
2022/11/07 03:25:36;;;;;;;9.47;3.00;;;;;;;9.93;100.00;100790.81;5073106;28;20049;-34
2022/11/07 03:28:02;;;;;;;12.15;2.60;;;;;;;9.92;100.00;100790.00;5073324;28;20254;-34
2022/11/07 03:30:27;;;;;;;12.05;3.00;;;;;;;9.97;100.00;100809.03;5073010;28;20025;-33
2022/11/07 03:32:53;;;;;;;8.30;2.40;;;;;;;9.93;100.00;100810.53;5073323;28;20463;-33
2022/11/07 03:35:19;;;;;;;11.43;2.75;;;;;;;9.97;100.00;100811.75;5072685;28;20524;-33
2022/11/07 03:37:46;;;;;;;9.13;2.33;;;;;;;9.95;100.00;100810.31;5073206;28;20166;-34
2022/11/07 03:40:11;;;;;;;9.80;2.50;;;;;;;9.95;100.00;100811.13;5073519;28;20041;-34
2022/11/07 03:42:41;;;;;;;9.80;2.70;;;;;;;9.87;100.00;100807.94;5073013;28;20032;-33
2022/11/07 03:45:08;;;;;;;11.00;2.67;;;;;;;9.93;100.00;100820.53;5072945;28;20034;-34
2022/11/07 03:47:35;;;;;;;7.68;2.70;;;;;;;9.96;100.00;100822.78;5071905;28;20036;-34
2022/11/07 03:50:01;;;;;;;11.05;2.67;;;;;;;9.89;100.00;100800.44;5072544;28;20039;-34
2022/11/07 03:52:26;;;;;;;8.75;2.33;;;;;;;9.98;100.00;100815.28;5073159;28;20032;-34
2022/11/07 03:54:51;;;;;;;7.20;2.30;;;;;;;10.00;100.00;100819.41;5072452;28;20028;-34
2022/11/07 03:57:17;;;;;;;8.90;2.23;;;;;;;10.02;100.00;100814.59;5073043;28;20115;-35
2022/11/07 03:59:42;;;;;;;8.83;2.23;;;;;;;10.05;100.00;100818.69;5072815;28;20451;-34
2022/11/07 04:02:07;;;;;;;9.70;2.33;;;;;;;10.05;100.00;100814.16;5072226;28;20504;-34
2022/11/07 04:04:32;;;;;;;11.00;2.63;;;;;;;10.02;100.00;100801.09;5073453;28;20036;-34
2022/11/07 04:06:58;;;;;;;10.55;2.33;;;;;;;10.10;100.00;100809.91;5072683;28;20029;-34
2022/11/07 04:09:23;;;;;;;11.37;2.50;;;;;;;10.13;100.00;100809.47;5073470;28;20075;-34
2022/11/07 04:17:19;;;;;;;11.70;2.40;;;;;;;10.17;100.00;100806.06;5073166;28;20451;-34
2022/11/07 04:19:50;;;;;;;10.95;2.47;;;;;;;10.18;100.00;100804.19;5073693;28;20035;-34
2022/11/07 04:22:16;;;;;;;10.32;2.72;;;;;;;10.18;100.00;100805.00;5076345;28;20036;-34
2022/11/07 04:24:41;;;;;;;;;;;;;;;10.21;100.00;100811.84;5076972;28;20131;-35
2022/11/07 04:29:53;;;;;;;9.02;2.50;;;;;;;10.11;100.00;100807.00;5076416;28;20034;-34
2022/11/07 04:32:19;;;;;;;12.63;3.40;;;;;;;10.18;100.00;100806.91;5076046;28;20432;-34
2022/11/07 04:34:45;;;;;;;11.50;2.50;;;;;;;10.18;100.00;100812.31;5076216;28;20071;-35
2022/11/07 04:37:10;;;;;;;15.10;2.90;;;;;;;10.18;100.00;100809.59;5076000;28;20111;-35
2022/11/07 04:39:35;;;;;;;11.10;2.53;;;;;;;10.16;100.00;100809.00;5076696;28;20032;-35
2022/11/07 04:42:01;;;;;;;13.50;2.60;;;;;;;10.15;100.00;100813.59;5076537;28;20048;-34
2022/11/07 04:44:26;;;;;;;10.60;2.33;;;;;;;10.05;100.00;100797.94;5075862;28;20021;-34
2022/11/07 04:46:51;;;;;;;14.63;2.80;;;;;;;10.12;100.00;100814.03;5076504;28;20039;-38
2022/11/07 04:49:17;;;;;;;11.07;2.20;;;;;;;10.10;100.00;100815.31;5076515;28;20020;-34
2022/11/07 04:51:43;;;;;;;10.02;2.47;;;;;;;10.05;100.00;100810.59;5076181;28;20029;-34
2022/11/07 04:54:14;;;;;;;11.95;2.70;;;;;;;10.11;100.00;100817.00;5075929;28;20464;-34
2022/11/07 04:56:40;;;;;;;14.95;2.80;;;;;;;10.09;100.00;100816.38;5076153;28;20077;-38
2022/11/07 04:59:06;;;;;;;11.90;2.47;;;;;;;10.02;100.00;100806.47;5076182;28;20354;-34
2022/11/07 05:01:31;;;;;;;14.20;3.40;;;;;;;10.04;100.00;100807.06;5075968;28;20127;-34
2022/11/07 05:03:57;;;;;;;10.93;2.47;;;;;;;10.10;100.00;100832.34;5075725;28;20036;-35
2022/11/07 05:06:22;;;;;;;11.10;2.93;;;;;;;10.11;100.00;100820.50;5076052;28;20036;-34
2022/11/07 05:08:48;;;;;;;10.63;2.45;;;;;;;10.17;100.00;100827.69;5075643;28;20426;-34
2022/11/07 05:11:14;;;;;;;11.60;2.40;;;;;;;10.18;100.00;100823.94;5075992;28;20024;-35
2022/11/07 05:13:39;;;;;;;10.68;2.45;;;;;;;10.23;100.00;100832.19;5076035;28;20024;-35
2022/11/07 05:16:05;;;;;;;11.47;3.07;;;;;;;10.26;100.00;100839.03;5074033;28;20167;-35
2022/11/07 05:18:31;;;;;;;10.02;2.40;;;;;;;10.24;100.00;100822.22;5075224;28;20263;-35
2022/11/07 05:20:56;;;;;;;11.27;3.13;;;;;;;10.26;100.00;100823.66;5074088;28;20035;-35
2022/11/07 05:23:21;;;;;;;12.77;2.50;;;;;;;10.29;100.00;100831.28;5075946;28;20035;-34
2022/11/07 05:25:51;;;;;;;11.03;3.20;;;;;;;10.36;100.00;100839.31;5075937;28;20044;-34
2022/11/07 05:28:22;;;;;;;9.60;2.33;;;;;;;10.35;100.00;100837.69;5075833;28;20314;-34
2022/11/07 05:30:47;;;;;;;14.90;3.38;;;;;;;10.34;100.00;100833.28;5074988;28;20036;-34
2022/11/07 05:33:15;;;;;;;9.93;2.37;;;;;;;10.38;100.00;100844.47;5075171;28;20469;-38
2022/11/07 05:35:40;;;;;;;11.02;2.97;;;;;;;10.40;100.00;100837.81;5075193;28;20082;-34
2022/11/07 05:38:06;;;;;;;13.57;2.70;;;;;;;10.41;100.00;100836.75;5075165;28;20461;-34
2022/11/07 05:40:34;;;;;;;13.90;3.03;;;;;;;10.35;100.00;100834.97;5075059;28;20090;-34
2022/11/07 05:43:01;;;;;;;9.23;2.33;;;;;;;10.43;100.00;100841.91;5075053;28;20104;-34
2022/11/07 05:45:30;;;;;;;11.02;2.25;;;;;;;10.44;100.00;100844.41;5075468;28;20029;-34
2022/11/07 05:48:00;;;;;;;14.50;3.17;;;;;;;10.42;100.00;100837.56;5075363;28;20031;-34
2022/11/07 05:50:26;;;;;;;14.40;3.28;;;;;;;10.42;100.00;100842.97;5075171;28;20029;-34
2022/11/07 05:52:52;;;;;;;14.57;3.03;;;;;;;10.42;100.00;100843.81;5075013;28;20036;-34
2022/11/07 05:55:18;;;;;;;10.98;2.20;;;;;;;10.36;100.00;100828.50;5074262;28;20035;-33
2022/11/07 05:57:43;;;;;;;13.18;3.90;;;;;;;10.36;100.00;100824.97;5076115;28;20033;-34
2022/11/07 06:00:09;;;;;;;11.10;2.30;;;;;;;10.44;100.00;100844.41;5075252;28;20028;-38
2022/11/07 06:02:34;;;;;;;10.57;2.58;;;;;;;10.44;100.00;100839.00;5075600;28;20036;-34
2022/11/07 06:05:00;;;;;;;6.93;2.07;;;;;;;10.46;100.00;100838.75;5075075;28;20028;-34
2022/11/07 06:07:25;;;;;;;9.73;2.20;;;;;;;10.39;100.00;100821.81;5074784;28;20024;-34
2022/11/07 06:09:50;;;;;;;11.48;2.53;;;;;;;10.33;100.00;100815.44;5073684;28;20388;-34
2022/11/07 06:12:16;;;;;;;13.77;2.73;;;;;;;10.43;100.00;100836.50;5075136;28;20372;-40
2022/11/07 06:14:41;;;;;;;14.73;3.10;;;;;;;10.42;100.00;100829.47;5073972;28;20052;-36
2022/11/07 06:17:06;;;;;;;10.23;2.97;;;;;;;10.41;100.00;100831.34;5074925;28;20036;-35
2022/11/07 06:19:32;;;;;;;9.32;2.88;;;;;;;10.44;100.00;100833.59;5075081;28;20064;-35
2022/11/07 06:21:59;;;;;;;11.93;2.42;;;;;;;10.47;100.00;100845.81;5074576;28;20427;-35
2022/11/07 06:24:24;;;;;;;13.48;3.00;;;;;;;10.48;100.00;100840.16;5074978;28;20393;-35
2022/11/07 06:26:50;;;;;;;9.98;2.67;;;;;;;10.50;100.00;100843.47;5074923;28;20024;-34
2022/11/07 06:29:15;;;;;;;9.50;2.50;;;;;;;10.46;100.00;100826.06;5075144;28;20025;-35
2022/11/07 06:31:40;;;;;;;11.13;2.53;;;;;;;10.53;100.00;100843.00;5074148;28;20035;-34
2022/11/07 06:34:06;;;;;;;11.70;3.10;;;;;;;10.50;100.00;100838.06;5074833;28;20025;-34
2022/11/07 06:36:31;;;;;;;12.83;2.70;;;;;;;10.50;100.00;100831.84;5074160;28;20025;-37
2022/11/07 06:38:56;;;;;;;10.40;2.93;;;;;;;10.48;100.00;100831.22;5074696;28;20032;-34
2022/11/07 06:41:22;;;;;;;15.27;3.30;;;;;;;10.63;100.00;100860.56;5074764;28;20028;-34
2022/11/07 06:43:49;;;;;;;10.77;2.67;;;;;;;10.66;100.00;100858.22;5073705;28;20426;-34
2022/11/07 06:46:16;;;;;;;15.25;2.83;;;;;;;10.67;100.00;100845.53;5074019;28;20033;-35
2022/11/07 06:48:42;;;;;;;13.52;2.95;;;;;;;10.69;100.00;100848.84;5074901;28;20039;-34
2022/11/07 06:51:08;;;;;;;13.45;2.78;;;;;;;10.70;100.00;100855.88;5074282;28;20438;-34
2022/11/07 06:53:34;;;;;;;9.80;2.67;;;;;;;10.67;100.00;100856.34;5073739;28;20543;-34
2022/11/07 06:56:01;;;;;;;13.20;3.05;;;;;;;10.68;100.00;100858.78;5073485;28;20025;-34
2022/11/07 06:58:26;;;;;;;11.02;2.55;;;;;;;10.71;100.00;100865.63;5074078;28;20047;-34
2022/11/07 07:00:52;;;;;;;11.90;2.88;;;;;;;10.67;100.00;100861.75;5073470;28;20024;-34
2022/11/07 07:03:17;;;;;;;11.25;3.42;;;;;;;10.71;100.00;100866.47;5073741;28;20032;-34
2022/11/07 07:05:43;;;;;;;10.73;2.33;;;;;;;10.72;100.00;100873.50;5073399;28;20078;-34
2022/11/07 07:08:10;;;;;;;15.93;2.77;;;;;;;10.72;100.00;100878.91;5073662;28;20286;-34
2022/11/07 07:10:39;;;;;;;13.13;2.88;;;;;;;10.72;100.00;100876.22;5073607;28;20381;-34
2022/11/07 07:13:05;;;;;;;12.80;3.05;;;;;;;10.72;100.00;100870.81;5074051;28;20025;-34
2022/11/07 07:15:31;;;;;;;11.02;3.10;;;;;;;10.74;100.00;100873.31;5073309;28;20031;-34
2022/11/07 07:18:01;;;;;;;12.05;3.00;;;;;;;10.73;100.00;100879.75;5074090;28;20024;-35
2022/11/07 07:20:27;;;;;;;13.90;3.20;;;;;;;10.76;100.00;100874.72;5073924;28;20032;-35
2022/11/07 07:22:52;;;;;;;;;;;;;;;10.81;100.00;100887.53;5074221;28;20115;-34
2022/11/07 07:25:17;;;;;;;11.43;2.77;;;;;;;10.82;100.00;100878.34;5073746;28;20334;-34
2022/11/07 07:27:43;;;;;;;13.50;2.93;;;;;;;10.84;100.00;100878.97;5073759;28;20479;-38
2022/11/07 07:30:09;;;;;;;11.57;2.80;;;;;;;10.93;100.00;100893.81;5073387;28;20368;-34
2022/11/07 07:32:34;;;;;;;14.90;2.88;;;;;;;10.96;100.00;100893.34;5073486;28;20021;-34
2022/11/07 07:35:00;;;;;;;14.27;2.47;;;;;;;10.99;100.00;100892.88;5073261;28;20029;-34
2022/11/07 07:37:25;;;;;;;13.17;2.87;;;;;;;10.97;100.00;100892.28;5071978;28;20251;-35
2022/11/07 07:39:51;;;;;;;13.13;3.30;;;;;;;11.00;100.00;100905.34;5072793;28;20147;-34
2022/11/07 07:42:16;;;;;;;12.18;3.50;;;;;;;11.01;100.00;100901.56;5073091;28;20281;-34
2022/11/07 07:44:42;;;;;;;13.30;2.97;;;;;;;11.03;100.00;100899.47;5073359;28;20032;-34
2022/11/07 07:47:07;;;;;;;10.33;2.80;;;;;;;10.96;100.00;100890.63;5073660;28;20048;-34
2022/11/07 07:49:32;;;;;;;15.73;3.27;;;;;;;10.99;100.00;100894.75;5072942;28;20040;-34
2022/11/07 07:51:58;;;;;;;11.40;2.67;;;;;;;11.07;100.00;100908.75;5073144;28;20103;-34
2022/11/07 07:54:23;;;;;;;12.87;2.67;;;;;;;11.09;100.00;100905.84;5073083;28;20033;-34
2022/11/07 07:56:48;;;;;;;11.47;2.80;;;;;;;11.12;100.00;100901.81;5073058;28;20098;-34
2022/11/07 07:59:13;;;;;;;10.73;2.93;;;;;;;11.15;100.00;100912.19;5072823;28;20021;-34
2022/11/07 08:01:39;;;;;;;11.43;2.87;;;;;;;11.20;100.00;100909.63;5072845;28;20024;-34
2022/11/07 08:04:04;;;;;;;13.07;3.40;;;;;;;11.23;100.00;100912.69;5073028;28;20423;-34
2022/11/07 08:06:31;;;;;;;13.23;2.60;;;;;;;11.10;100.00;100885.84;5073016;28;20145;-34
2022/11/07 08:08:56;;;;;;;13.18;2.40;;;;;;;11.31;100.00;100914.22;5073176;28;20032;-34
2022/11/07 08:11:22;;;;;;;10.48;2.30;;;;;;;11.22;100.00;100904.78;5072618;28;20401;-34
2022/11/07 08:13:47;;;;;;;11.33;2.43;;;;;;;11.37;100.00;100920.56;5072909;28;20210;-34
2022/11/07 08:16:12;;;;;;;8.87;2.20;;;;;;;11.42;100.00;100926.94;5072634;28;20104;-34
2022/11/07 08:18:39;;;;;;;16.50;3.53;;;;;;;11.45;100.00;100922.94;5072965;28;20079;-34
2022/11/07 08:21:05;;;;;;;12.38;3.15;;;;;;;11.48;100.00;100927.91;5073299;28;20078;-34
2022/11/07 08:23:31;;;;;;;11.32;3.03;;;;;;;11.52;100.00;100923.66;5073059;28;20025;-33
2022/11/07 08:25:58;;;;;;;12.25;3.80;;;;;;;11.54;100.00;100929.66;5073386;28;20522;-34
2022/11/07 08:28:26;;;;;;;10.60;2.42;;;;;;;11.56;100.00;100933.75;5073475;28;20376;-34
2022/11/07 08:30:56;;;;;;;11.43;2.72;;;;;;;11.57;100.00;100940.03;5072679;28;20039;-34
2022/11/07 08:33:21;;;;;;;10.10;2.20;;;;;;;11.58;100.00;100918.13;5072698;28;20033;-34
2022/11/07 08:35:46;;;;;;;11.48;2.63;;;;;;;11.67;100.00;100934.84;5072984;28;20029;-34
2022/11/07 08:38:12;;;;;;;9.73;2.77;;;;;;;11.71;100.00;100935.19;5072735;28;20384;-35
2022/11/07 08:40:37;;;;;;;11.30;2.43;;;;;;;11.74;100.00;100929.28;5072833;28;20024;-35
2022/11/07 08:43:02;;;;;;;11.33;2.63;;;;;;;11.79;100.00;100929.41;5072927;28;20465;-34
2022/11/07 08:45:28;;;;;;;13.30;2.30;;;;;;;11.92;100.00;100942.75;5073150;28;20036;-35
2022/11/07 08:47:57;;;;;;;8.70;2.23;;;;;;;12.00;100.00;100955.91;5072625;28;20131;-34
2022/11/07 08:50:23;;;;;;;11.93;2.88;;;;;;;12.04;100.00;100956.28;5072265;28;20021;-34
2022/11/07 08:52:49;;;;;;;12.85;2.85;;;;;;;12.07;100.00;100961.22;5072424;28;20039;-34
2022/11/07 08:55:14;;;;;;;9.95;2.78;;;;;;;12.06;100.00;100957.69;5072507;28;20187;-35
2022/11/07 08:57:39;;;;;;;9.02;2.55;;;;;;;12.11;100.00;100963.22;5072544;28;20484;-34
2022/11/07 09:00:05;;;;;;;10.67;2.50;;;;;;;12.13;100.00;100970.28;5072512;28;20052;-34
2022/11/07 09:02:31;;;;;;;8.52;2.38;;;;;;;12.07;100.00;100970.19;5073390;28;20354;-36
2022/11/07 09:04:56;;;;;;;10.98;2.85;;;;;;;12.07;100.00;100970.19;5072865;28;20525;-35
2022/11/07 09:07:22;;;;;;;9.00;2.57;;;;;;;12.06;100.00;100973.97;5076221;28;20039;-41
2022/11/07 09:09:47;;;;;;;9.10;2.78;;;;;;;12.08;100.00;100984.56;5076481;28;20075;-35
2022/11/07 09:12:13;;;;;;;9.37;2.37;;;;;;;12.06;100.00;100987.50;5076265;28;20033;-35
2022/11/07 09:14:38;;;;;;;9.23;2.67;;;;;;;11.98;100.00;100968.91;5074651;28;20298;-35
2022/11/07 09:17:03;;;;;;;11.15;2.58;;;;;;;12.06;100.00;100987.50;5076051;28;20029;-34
2022/11/07 09:19:29;;;;;;;12.23;3.00;;;;;;;12.06;100.00;100989.41;5075957;28;20395;-34
2022/11/07 09:21:55;;;;;;;11.55;3.63;;;;;;;12.07;100.00;100989.16;5075335;28;20364;-34
2022/11/07 09:24:21;;;;;;;13.38;3.17;;;;;;;12.09;100.00;100986.19;5075907;28;20041;-35
2022/11/07 09:26:46;;;;;;;11.37;2.57;;;;;;;12.11;100.00;100987.63;5075562;28;20369;-34
2022/11/07 09:29:11;;;;;;;13.15;3.33;;;;;;;12.12;100.00;100980.31;5075759;28;20027;-35
2022/11/07 09:31:37;;;;;;;10.30;3.23;;;;;;;12.13;100.00;100995.50;5075478;28;20029;-35
2022/11/07 09:34:02;;;;;;;12.40;2.63;;;;;;;12.06;100.00;100995.66;5075623;28;20310;-36
2022/11/07 09:36:27;;;;;;;14.00;3.40;;;;;;;12.13;100.00;100991.97;5075595;28;20056;-34
2022/11/07 09:38:55;;;;;;;10.53;2.80;;;;;;;12.11;100.00;101003.06;5075785;28;20255;-35
2022/11/07 09:41:38;;;;;;;14.10;2.85;;;;;;;12.11;100.00;101006.59;5075915;28;20263;-35
2022/11/07 09:46:34;;;;;;;16.13;2.80;;;;;;;12.11;100.00;101006.59;5091345;27;20813;-34
2022/11/07 09:49:15;;;;;;;9.65;2.65;;;;;;;12.11;100.00;101005.78;5091322;28;20487;-34
2022/11/07 09:51:54;;;;;;;10.38;2.50;;;;;;;12.07;100.00;101007.31;5091377;28;20095;-33
2022/11/07 09:54:26;;;;;;;12.43;3.63;;;;;;;12.08;100.00;101001.66;5091014;28;20047;-34
2022/11/07 09:56:54;;;;;;;15.32;3.45;;;;;;;12.16;100.00;101005.88;5090645;28;20021;-34
2022/11/07 09:59:29;;;;;;;8.23;2.47;;;;;;;12.19;100.00;101008.09;5091402;28;20071;-34
2022/11/07 10:01:54;;;;;;;13.27;2.70;;;;;;;12.19;100.00;101001.88;5090784;28;20028;-34
2022/11/07 10:04:21;;;;;;;11.07;2.42;;;;;;;12.27;100.00;101015.06;5090523;28;20453;-35
2022/11/07 10:06:53;;;;;;;10.45;2.97;;;;;;;12.30;100.00;101010.00;5090404;28;20025;-35
2022/11/07 10:09:45;;;;;;;9.27;2.60;;;;;;;12.34;100.00;101019.28;5090288;28;20028;-34
2022/11/07 10:12:40;;;;;;;12.45;3.17;;;;;;;12.38;100.00;101006.91;5089315;28;20067;-34
2022/11/07 10:15:23;;;;;;;9.52;2.35;;;;;;;12.40;100.00;101003.97;5090722;28;20036;-34
2022/11/07 10:17:52;;;;;;;10.70;2.63;;;;;;;12.42;100.00;100998.28;5090248;28;20520;-35
2022/11/07 10:20:54;;;;;;;11.82;3.30;;;;;;;12.53;100.00;101011.81;5090074;28;20077;-34
2022/11/07 10:23:28;;;;;;;9.18;2.53;;;;;;;12.57;100.00;101013.00;5027590;28;20045;-34
2022/11/07 10:26:06;;;;;;;10.38;2.90;;;;;;;12.53;100.00;101006.38;5028029;28;20042;-34
2022/11/07 10:28:37;;;;;;;7.78;2.25;;;;;;;12.63;100.00;101027.47;5027793;28;20038;-34
2022/11/07 10:31:06;;;;;;;9.23;2.10;;;;;;;12.65;100.00;101024.56;5027830;28;20068;-34
2022/11/07 10:33:56;;;;;;;13.27;3.00;;;;;;;12.67;100.00;101022.41;5027500;28;20045;-34
2022/11/07 10:36:25;;;;;;;10.13;2.55;;;;;;;12.66;100.00;101023.47;5027272;28;20072;-34
2022/11/07 10:38:51;;;;;;;9.88;2.50;;;;;;;12.65;100.00;101033.50;5027347;28;20048;-34
2022/11/07 10:41:26;;;;;;;8.98;2.75;;;;;;;12.69;100.00;101044.69;5027343;28;20037;-34
2022/11/07 10:44:02;;;;;;;15.10;2.85;;;;;;;12.73;100.00;101043.16;5027866;28;20068;-34
2022/11/07 10:46:41;;;;;;;10.27;2.40;;;;;;;12.81;100.00;101048.19;5027257;28;20045;-34
2022/11/07 10:49:29;;;;;;;9.45;2.78;;;;;;;12.88;100.00;101038.03;5027221;28;20045;-34
2022/11/07 10:52:17;;;;;;;10.98;2.58;;;;;;;12.96;100.00;101042.25;5027829;28;20054;-34
2022/11/07 10:54:43;;;;;;;9.85;2.65;;;;;;;13.04;100.00;101037.25;5027448;28;20076;-34
2022/11/07 10:57:09;;;;;;;11.95;2.88;;;;;;;13.15;100.00;101046.41;5017766;28;20112;-34
2022/11/07 10:59:38;;;;;;;13.27;2.90;;;;;;;13.17;100.00;101046.16;5064372;28;20040;-34
2022/11/07 11:02:20;;;;;;;12.40;2.70;;;;;;;13.19;100.00;101044.06;5075792;28;20089;-34
2022/11/07 11:04:52;;;;;;;13.40;3.28;;;;;;;13.20;100.00;101035.66;5075720;28;20107;-34
2022/11/07 11:07:18;;;;;;;13.02;2.70;;;;;;;13.18;100.00;101037.81;5076272;28;20436;-34
2022/11/07 11:09:50;;;;;;;12.57;2.45;;;;;;;13.14;100.00;101026.59;5076474;28;20032;-34
2022/11/07 11:12:24;;;;;;;9.95;2.10;;;;;;;13.15;100.00;101033.66;5075992;28;20075;-34
2022/11/07 11:14:49;;;;;;;9.73;2.58;;;;;;;13.18;100.00;101031.56;5075919;28;20040;-34
2022/11/07 11:17:24;;;;;;;12.82;2.45;;;;;;;13.19;100.00;101023.16;5076201;28;20098;-34
2022/11/07 11:19:52;;;;;;;11.77;2.90;;;;;;;13.23;100.00;101018.91;5075369;28;20388;-34
2022/11/07 11:22:22;;;;;;;8.50;2.97;;;;;;;13.31;100.00;101025.81;5075507;28;20028;-34
2022/11/07 11:25:09;;;;;;;12.82;2.85;;;;;;;13.38;100.00;101026.50;5075371;28;20033;-35
2022/11/07 11:27:36;;;;;;;11.52;2.72;;;;;;;13.42;99.92;101010.53;5075445;28;20035;-34
2022/11/07 11:30:06;;;;;;;12.27;2.83;;;;;;;13.46;99.35;101009.78;5075332;28;20033;-34
2022/11/07 11:32:38;;;;;;;9.10;2.35;;;;;;;13.45;98.95;101010.88;5075816;28;20067;-33